Terminal Aerodrome Forecast
Issued by NWS Corpus Christi, TX

Home | Current Version | Previous Version | Text Only | Print | Product List | Glossary On
Versions: 1 2 3 4 5 6 7 8 9 10 11 12 13 14 15 16 17 18 19 20
591
FTUS44 KCRP 192333
TAFCRP
TAF
KCRP 192333Z 2000/2024 16027G35KT P6SM FEW015 SCT020 BKN050
      TEMPO 2000/2002 SCT015 BKN020
     FM200200 15019G28KT P6SM BKN015
     FM201500 16025G33KT P6SM BKN018
     FM201900 16025G33KT P6SM SCT025 BKN035=

USA.gov is the U.S. government's official web portal to all federal, state and local government web resources and services.